createdAt,value
2019-03-18T00:02:53.725Z,20.73
2019-03-18T00:07:58.922Z,18.33
2019-03-18T00:13:04.346Z,16.97
2019-03-18T00:18:12.019Z,17.87
2019-03-18T00:23:17.123Z,19.80
2019-03-18T00:28:23.570Z,16.90
2019-03-18T00:33:29.182Z,15.73
2019-03-18T00:38:39.656Z,17.17
2019-03-18T00:43:47.007Z,17.90
2019-03-18T00:48:53.486Z,20.03
2019-03-18T00:53:58.740Z,17.50
2019-03-18T00:59:07.485Z,21.47
2019-03-18T01:04:14.194Z,19.57
2019-03-18T01:09:29.153Z,24.67
2019-03-18T01:14:36.165Z,21.73
2019-03-18T01:19:42.968Z,24.70
2019-03-18T01:24:48.390Z,20.50
2019-03-18T01:29:55.022Z,19.80
2019-03-18T01:35:00.384Z,19.90
2019-03-18T01:40:06.796Z,19.10
2019-03-18T01:45:11.856Z,21.07
2019-03-18T01:50:17.061Z,20.30
2019-03-18T01:55:25.251Z,21.57
2019-03-18T02:00:30.534Z,17.37
2019-03-18T02:05:35.602Z,16.73
2019-03-18T02:10:41.204Z,17.13
2019-03-18T02:15:53.157Z,18.83
2019-03-18T02:20:54.648Z,20.87
2019-03-18T02:26:00.048Z,18.57
2019-03-18T02:31:06.296Z,19.87
2019-03-18T02:36:11.920Z,21.40
2019-03-18T02:41:17.965Z,17.30
2019-03-18T02:46:24.674Z,16.33
2019-03-18T02:51:33.265Z,16.03
2019-03-18T02:56:38.540Z,19.23
2019-03-18T03:01:46.343Z,20.47
2019-03-18T03:06:51.613Z,18.50
2019-03-18T03:11:57.485Z,16.70
2019-03-18T03:17:02.686Z,17.53
2019-03-18T03:22:07.861Z,26.17
2019-03-18T03:27:12.985Z,26.40
2019-03-18T03:32:18.363Z,21.20
2019-03-18T03:37:23.359Z,21.53
2019-03-18T03:42:29.790Z,28.53
2019-03-18T03:47:36.632Z,22.97
2019-03-18T03:52:41.637Z,22.50
2019-03-18T03:57:47.089Z,21.97
2019-03-18T04:02:53.135Z,23.60
2019-03-18T04:07:59.197Z,17.30
2019-03-18T04:13:04.037Z,23.60
2019-03-18T04:18:09.213Z,25.07
2019-03-18T04:23:14.974Z,20.23
2019-03-18T04:28:20.389Z,23.80
2019-03-18T04:33:29.278Z,22.40
2019-03-18T04:38:35.546Z,25.37
2019-03-18T04:43:44.440Z,25.60
2019-03-18T04:48:53.814Z,24.37
2019-03-18T04:54:03.416Z,25.53
2019-03-18T04:59:15.737Z,22.67
2019-03-18T05:04:25.154Z,19.13
2019-03-18T05:09:30.300Z,18.83
2019-03-18T05:14:35.392Z,20.13
2019-03-18T05:19:41.775Z,23.17
2019-03-18T05:24:47.806Z,22.27
2019-03-18T05:29:56.697Z,23.00
2019-03-18T05:35:01.683Z,24.70
2019-03-18T05:40:06.920Z,24.67
2019-03-18T05:45:12.378Z,31.00
2019-03-18T05:50:23.787Z,23.57
2019-03-18T05:55:29.567Z,26.90
2019-03-18T06:00:36.128Z,27.60
2019-03-18T06:05:42.746Z,25.17
2019-03-18T06:10:48.032Z,24.90
2019-03-18T06:15:53.970Z,24.03
2019-03-18T06:20:59.162Z,30.30
2019-03-18T06:26:06.178Z,28.47
2019-03-18T06:31:12.282Z,21.07
2019-03-18T06:36:18.352Z,23.67
2019-03-18T06:41:23.572Z,22.23
2019-03-18T06:46:28.804Z,20.07
2019-03-18T06:51:33.928Z,20.70
2019-03-18T06:56:39.546Z,19.60
2019-03-18T07:01:44.975Z,20.60
2019-03-18T07:06:49.980Z,25.03
2019-03-18T07:11:55.315Z,26.63
2019-03-18T07:17:02.161Z,25.17
2019-03-18T07:22:07.246Z,24.40
2019-03-18T07:27:12.428Z,24.17
2019-03-18T07:32:17.612Z,25.00
2019-03-18T07:37:23.904Z,21.13
2019-03-18T07:42:30.389Z,21.43
2019-03-18T07:47:35.908Z,19.23
2019-03-18T07:52:41.269Z,21.40
2019-03-18T07:57:46.284Z,22.67
2019-03-18T08:02:51.828Z,18.47
2019-03-18T08:07:57.080Z,18.53
2019-03-18T08:13:02.068Z,18.87
2019-03-18T08:18:07.562Z,21.30
2019-03-18T08:23:12.568Z,25.27
2019-03-18T08:28:17.620Z,23.37
2019-03-18T08:33:25.526Z,20.57
2019-03-18T08:38:30.906Z,20.53
2019-03-18T08:43:36.202Z,18.50
2019-03-18T08:48:55.112Z,15.80
2019-03-18T08:53:50.386Z,21.47
2019-03-18T08:58:56.094Z,16.53
2019-03-18T09:04:02.438Z,19.47
2019-03-18T09:09:12.773Z,22.23
2019-03-18T09:14:17.808Z,22.90
2019-03-18T09:19:23.093Z,22.57
2019-03-18T09:24:28.425Z,21.70
2019-03-18T09:29:33.539Z,22.17
2019-03-18T09:34:38.774Z,16.00
2019-03-18T09:39:48.126Z,19.03
2019-03-18T09:44:56.204Z,20.83
2019-03-18T09:50:03.037Z,19.73
2019-03-18T09:55:08.556Z,16.57
2019-03-18T10:00:14.321Z,15.87
2019-03-18T10:05:23.528Z,18.30
2019-03-18T10:10:30.924Z,16.47
2019-03-18T10:15:37.523Z,18.57
2019-03-18T10:20:43.341Z,15.90
2019-03-18T10:25:48.933Z,15.83
2019-03-18T10:30:55.619Z,16.60
2019-03-18T10:36:01.492Z,18.00
2019-03-18T10:41:08.217Z,17.07
2019-03-18T10:46:14.825Z,16.40
2019-03-18T10:51:24.472Z,14.83
2019-03-18T10:56:33.452Z,17.47
2019-03-18T11:01:38.965Z,18.03
2019-03-18T11:06:48.293Z,17.93
2019-03-18T11:11:57.765Z,16.43
2019-03-18T11:17:03.028Z,16.37
2019-03-18T11:22:09.546Z,17.70
2019-03-18T11:27:16.410Z,16.53
2019-03-18T11:32:22.362Z,16.17
2019-03-18T11:37:27.873Z,17.50
2019-03-18T11:42:34.597Z,16.77
2019-03-18T11:47:42.283Z,18.57
2019-03-18T11:52:50.887Z,15.10
2019-03-18T11:57:57.580Z,14.20
2019-03-18T12:03:05.095Z,16.67
2019-03-18T12:08:10.225Z,18.60
2019-03-18T12:13:21.469Z,21.60
2019-03-18T12:18:28.530Z,16.33
2019-03-18T12:23:33.697Z,18.33
2019-03-18T12:28:39.081Z,15.33
2019-03-18T12:33:44.233Z,15.23
2019-03-18T12:38:49.227Z,13.93
2019-03-18T12:43:54.357Z,13.37
2019-03-18T12:48:59.818Z,18.10
2019-03-18T12:54:05.218Z,19.27
2019-03-18T12:59:10.283Z,19.33
2019-03-18T13:04:15.438Z,15.30
2019-03-18T13:09:20.966Z,16.73
2019-03-18T13:14:26.139Z,17.47
2019-03-18T13:19:31.290Z,17.23
2019-03-18T13:24:37.274Z,14.33
2019-03-18T13:29:44.407Z,13.93
2019-03-18T13:34:51.545Z,15.27
2019-03-18T13:39:56.779Z,13.67
2019-03-18T13:45:02.100Z,19.33
2019-03-18T13:50:09.155Z,17.43
2019-03-18T13:55:14.336Z,14.43
2019-03-18T14:00:31.061Z,18.37
2019-03-18T14:05:37.388Z,17.20
2019-03-18T14:10:42.554Z,18.70
2019-03-18T14:15:48.079Z,18.13
2019-03-18T14:20:56.743Z,16.10
2019-03-18T14:26:03.344Z,17.67
2019-03-18T14:31:10.420Z,15.93
2019-03-18T14:36:18.362Z,15.80
2019-03-18T14:41:23.526Z,15.20
2019-03-18T14:46:29.204Z,14.00
2019-03-18T14:51:45.379Z,16.13
2019-03-18T14:56:43.210Z,15.63
2019-03-18T15:01:48.770Z,14.27
2019-03-18T15:06:54.973Z,14.43
2019-03-18T15:12:00.207Z,17.00
2019-03-18T15:17:05.678Z,19.13
2019-03-18T15:22:16.193Z,14.83
2019-03-18T15:27:21.606Z,17.27
2019-03-18T15:32:26.756Z,17.97
2019-03-18T15:37:47.195Z,17.63
2019-03-18T15:42:55.407Z,19.00
2019-03-18T15:48:02.158Z,19.83
2019-03-18T15:53:14.326Z,17.73
2019-03-18T15:58:22.858Z,19.47
2019-03-18T16:03:42.129Z,19.87
2019-03-18T16:08:48.196Z,17.13
2019-03-18T16:13:58.038Z,16.90
2019-03-18T16:19:05.543Z,18.27
2019-03-18T16:24:13.710Z,15.43
2019-03-18T16:29:27.309Z,17.03
2019-03-18T16:34:33.235Z,16.40
2019-03-18T16:39:42.964Z,14.80
2019-03-18T16:44:48.078Z,16.90
2019-03-18T16:49:53.236Z,15.67
2019-03-18T16:55:00.870Z,20.37
2019-03-18T17:00:06.591Z,17.70
2019-03-18T17:05:12.972Z,19.30
2019-03-18T17:10:28.651Z,16.00
2019-03-18T17:15:34.862Z,16.97
2019-03-18T17:20:40.317Z,16.40
2019-03-18T17:25:45.503Z,15.63
2019-03-18T17:30:50.824Z,13.70
2019-03-18T17:35:57.021Z,14.73
2019-03-18T17:41:09.350Z,16.00
2019-03-18T17:46:20.115Z,16.80
2019-03-18T17:51:25.848Z,15.73
2019-03-18T17:56:39.965Z,15.20
2019-03-18T18:01:45.844Z,17.33
2019-03-18T18:06:53.347Z,17.80
2019-03-18T18:11:58.662Z,19.73
2019-03-18T18:17:06.272Z,15.37
2019-03-18T18:22:12.884Z,16.57
2019-03-18T18:27:37.571Z,17.73
2019-03-18T18:32:43.106Z,18.07
2019-03-18T18:37:50.757Z,19.30
2019-03-18T18:42:56.881Z,19.77
2019-03-18T18:48:03.431Z,18.13
2019-03-18T18:53:09.303Z,16.53
2019-03-18T18:58:15.459Z,17.27
2019-03-18T19:03:20.739Z,15.97
2019-03-18T19:08:26.221Z,18.67
2019-03-18T19:13:31.623Z,17.87
2019-03-18T19:18:45.417Z,19.30
2019-03-18T19:23:50.791Z,17.33
2019-03-18T19:28:56.011Z,20.20
2019-03-18T19:34:06.013Z,17.47
2019-03-18T19:39:12.633Z,18.23
2019-03-18T19:44:18.713Z,21.87
2019-03-18T19:49:24.123Z,19.63
2019-03-18T19:54:30.146Z,18.97
2019-03-18T19:59:35.431Z,19.57
2019-03-18T20:04:40.995Z,18.80
2019-03-18T20:09:46.297Z,22.00
2019-03-18T20:14:52.000Z,20.07
2019-03-18T20:19:57.863Z,18.07
2019-03-18T20:25:03.195Z,22.67
2019-03-18T20:30:14.622Z,19.53
2019-03-18T20:35:21.683Z,22.87
2019-03-18T20:40:40.437Z,18.67
2019-03-18T20:45:46.073Z,18.43
2019-03-18T20:50:51.503Z,18.87
2019-03-18T20:55:58.795Z,18.93
2019-03-18T21:01:03.980Z,17.00
2019-03-18T21:06:10.883Z,19.37
2019-03-18T21:11:16.094Z,20.93
2019-03-18T21:16:21.818Z,18.10
2019-03-18T21:21:27.227Z,19.03
2019-03-18T21:26:32.502Z,19.30
2019-03-18T21:31:39.187Z,21.87
2019-03-18T21:36:45.559Z,19.03
2019-03-18T21:41:52.524Z,18.53
2019-03-18T21:46:59.139Z,22.47
2019-03-18T21:52:04.553Z,20.43
2019-03-18T21:57:11.207Z,19.33
2019-03-18T22:02:17.588Z,22.63
2019-03-18T22:07:24.932Z,22.20
2019-03-18T22:12:31.198Z,22.00
2019-03-18T22:17:36.415Z,22.70
2019-03-18T22:22:42.159Z,23.37
2019-03-18T22:27:47.259Z,20.00
2019-03-18T22:32:54.752Z,19.70
2019-03-18T22:38:00.458Z,22.53
2019-03-18T22:43:07.333Z,21.63
2019-03-18T22:48:13.090Z,21.07
2019-03-18T22:53:18.167Z,20.93
2019-03-18T22:58:23.540Z,20.73
2019-03-18T23:03:28.813Z,21.97
2019-03-18T23:08:34.295Z,22.63
2019-03-18T23:13:39.706Z,24.47
2019-03-18T23:18:45.201Z,22.17
2019-03-18T23:23:50.817Z,28.17
2019-03-18T23:28:55.894Z,25.10
2019-03-18T23:34:01.579Z,27.13
2019-03-18T23:39:08.671Z,27.97
2019-03-18T23:44:13.781Z,23.63
2019-03-18T23:49:19.052Z,27.00
2019-03-18T23:54:24.546Z,26.70
2019-03-18T23:59:29.709Z,25.37
